Time;durP1;ratioP1;P1;durP2;ratioP2;P2;SDS_P1;SDS_P2;PMS_P1;PMS_P2;Temp;Humidity;BMP_temperature;BMP_pressure;BME280_temperature;BME280_humidity;BME280_pressure;Samples;Min_cycle;Max_cycle;Signal;HPM_P1;HPM_P2
2023/01/07 00:01:30;;;;;;;13.53;4.93;;;;;;;-16.91;46.29;100806.81;4782045;30;20066;-80
2023/01/07 00:03:58;;;;;;;9.10;4.27;;;;;;;-16.92;46.99;100811.63;4791459;29;20526;-81
2023/01/07 00:06:31;;;;;;;9.57;3.97;;;;;;;-17.06;47.30;100796.00;4787350;29;20581;-80
2023/01/07 00:08:58;;;;;;;6.80;3.60;;;;;;;-17.06;47.12;100791.00;4806369;29;20082;-78
2023/01/07 00:11:33;;;;;;;10.60;4.10;;;;;;;-16.89;47.58;100827.81;4786947;29;20579;-78
2023/01/07 00:14:00;;;;;;;9.10;4.07;;;;;;;-17.13;46.68;100776.09;4789842;29;20117;-81
2023/01/07 00:16:30;;;;;;;7.90;4.33;;;;;;;-17.13;46.82;100773.59;4806393;29;20129;-78
2023/01/07 00:18:59;;;;;;;10.63;4.70;;;;;;;-16.85;46.75;100821.56;4806136;29;20104;-80
2023/01/07 00:21:26;;;;;;;10.63;3.97;;;;;;;-17.13;46.82;100774.47;4830185;29;20049;-78
2023/01/07 00:23:58;;;;;;;10.87;3.93;;;;;;;-16.97;47.55;100802.06;4818315;29;20043;-80
2023/01/07 00:26:28;;;;;;;12.47;4.67;;;;;;;-16.80;47.04;100825.47;4813608;29;20122;-81
2023/01/07 00:28:54;;;;;;;8.83;3.50;;;;;;;-16.82;46.75;100821.94;4816817;29;20110;-81
2023/01/07 00:31:22;;;;;;;10.37;3.67;;;;;;;-16.92;46.60;100797.56;4815051;29;20051;-81
2023/01/07 00:36:23;;;;;;;8.00;3.30;;;;;;;-16.79;47.31;100811.44;4805342;29;20050;-80
2023/01/07 00:38:58;;;;;;;7.90;4.00;;;;;;;-16.73;46.58;100808.06;4806236;29;20084;-80
2023/01/07 00:41:24;;;;;;;9.03;3.17;;;;;;;-16.59;47.02;100824.59;4804325;29;20452;-80
2023/01/07 00:43:50;;;;;;;8.43;3.67;;;;;;;-16.59;46.83;100818.69;4804106;29;20057;-78
2023/01/07 00:46:16;;;;;;;13.70;4.17;;;;;;;-16.57;47.28;100814.78;4804624;29;20050;-80
2023/01/07 00:48:43;;;;;;;13.40;4.33;;;;;;;-16.66;46.85;100798.06;4805471;29;20437;-80
2023/01/07 00:51:11;;;;;;;11.33;4.50;;;;;;;-16.59;46.32;100804.66;4810605;29;20456;-79
2023/01/07 00:53:37;;;;;;;8.50;4.07;;;;;;;-16.57;46.43;100792.34;4787505;29;20062;-80
2023/01/07 00:56:03;;;;;;;11.60;4.20;;;;;;;-16.52;46.72;100802.13;4771446;30;20051;-78
2023/01/07 00:58:30;;;;;;;12.13;4.13;;;;;;;-16.66;47.10;100774.75;4786062;30;20088;-81
2023/01/07 01:00:58;;;;;;;10.77;3.93;;;;;;;-16.62;47.18;100791.84;4785911;30;20516;-80
2023/01/07 01:03:25;;;;;;;13.53;4.37;;;;;;;-16.53;47.11;100820.28;4787326;29;20089;-79
2023/01/07 01:05:51;;;;;;;9.60;4.07;;;;;;;-16.61;46.43;100817.63;4771020;30;20538;-80
2023/01/07 01:08:19;;;;;;;12.33;4.83;;;;;;;-16.60;46.64;100812.84;4787030;29;20111;-81
2023/01/07 01:10:45;;;;;;;13.13;4.30;;;;;;;-16.70;46.51;100803.44;4787029;29;20059;-79
2023/01/07 01:13:14;;;;;;;10.93;4.90;;;;;;;-16.73;47.33;100804.66;4801143;29;20065;-80
2023/01/07 01:15:42;;;;;;;11.23;4.20;;;;;;;-16.65;46.27;100833.84;4813762;29;20042;-81
2023/01/07 01:18:08;;;;;;;8.57;3.43;;;;;;;-16.72;47.17;100821.38;4806589;29;20046;-79
2023/01/07 01:20:35;;;;;;;16.70;4.30;;;;;;;-17.02;46.25;100783.19;4804877;29;20077;-79
2023/01/07 01:23:01;;;;;;;14.10;5.77;;;;;;;-16.77;46.50;100835.81;4803846;29;20065;-79
2023/01/07 01:25:27;;;;;;;12.63;5.23;;;;;;;-17.04;46.73;100803.66;4817091;29;20050;-79
2023/01/07 01:27:53;;;;;;;10.90;5.10;;;;;;;-17.18;46.46;100782.13;4787440;29;20055;-80
2023/01/07 01:30:19;;;;;;;16.07;4.67;;;;;;;-17.10;47.19;100810.41;4787500;29;20051;-81
2023/01/07 01:32:45;;;;;;;10.60;4.13;;;;;;;-17.01;46.65;100844.72;4786330;29;20047;-79
2023/01/07 01:35:11;;;;;;;11.17;4.17;;;;;;;-17.08;46.66;100834.75;4771514;30;20355;-81
2023/01/07 01:37:37;;;;;;;10.20;3.93;;;;;;;-17.20;46.82;100819.28;4801527;29;20055;-79
2023/01/07 01:40:05;;;;;;;7.60;3.57;;;;;;;-17.09;46.83;100840.44;4786218;29;20054;-80
2023/01/07 01:42:32;;;;;;;8.17;3.33;;;;;;;-17.12;46.73;100838.50;4770873;29;20047;-79
2023/01/07 01:45:00;;;;;;;9.67;4.43;;;;;;;-17.19;46.94;100820.19;4757340;30;20096;-80
2023/01/07 01:47:49;;;;;;;10.87;4.13;;;;;;;-17.06;46.52;100853.25;4787822;30;20066;-80
2023/01/07 01:50:27;;;;;;;8.63;3.88;;;;;;;-17.09;46.75;100857.00;4787762;30;20085;-80
2023/01/07 01:53:03;;;;;;;9.33;4.43;;;;;;;-17.10;46.16;100860.19;4786452;30;20051;-79
2023/01/07 01:55:45;;;;;;;10.20;3.70;;;;;;;-17.17;46.76;100844.53;4786435;29;20051;-79
2023/01/07 01:58:19;;;;;;;11.20;3.43;;;;;;;-17.12;46.72;100845.09;4785754;30;20053;-80
2023/01/07 02:00:48;;;;;;;14.83;4.83;;;;;;;-17.10;46.46;100856.13;4803234;29;20047;-81
2023/01/07 02:03:17;;;;;;;9.50;3.20;;;;;;;-17.01;46.83;100876.25;4787869;30;20162;-80
2023/01/07 02:05:45;;;;;;;10.70;4.20;;;;;;;-17.05;47.09;100865.00;4785722;29;20054;-80
2023/01/07 02:08:12;;;;;;;9.47;3.70;;;;;;;-16.94;46.61;100885.28;4787019;30;20070;-79
2023/01/07 02:10:39;;;;;;;6.30;3.17;;;;;;;-16.99;46.94;100874.81;4799880;29;20116;-82
2023/01/07 02:13:24;;;;;;;12.90;5.17;;;;;;;-16.90;46.53;100889.91;4804563;29;20057;-79
2023/01/07 02:15:53;;;;;;;10.60;4.17;;;;;;;-16.91;46.38;100893.97;4758408;30;20099;-81
2023/01/07 02:18:31;;;;;;;9.30;3.83;;;;;;;-17.07;46.56;100893.81;4793780;30;20072;-81
2023/01/07 02:21:26;;;;;;;10.30;3.33;;;;;;;-17.30;46.80;100888.63;4790206;30;20043;-79
2023/01/07 02:23:58;;;;;;;11.10;4.03;;;;;;;-17.39;46.62;100903.34;4789698;30;20047;-79
2023/01/07 02:26:30;;;;;;;12.97;5.73;;;;;;;-17.45;46.60;100900.13;4785246;29;20034;-80
2023/01/07 02:29:32;;;;;;;11.17;4.10;;;;;;;-17.67;46.99;100866.84;4799047;29;20103;-80
2023/01/07 02:32:22;;;;;;;11.30;3.83;;;;;;;-17.40;47.19;100911.53;4809456;29;20065;-80
2023/01/07 02:35:09;;;;;;;8.33;4.03;;;;;;;-17.48;46.84;100912.19;4810380;29;20034;-82
2023/01/07 02:38:06;;;;;;;10.60;4.13;;;;;;;-17.51;46.82;100915.22;4807486;29;20043;-79
2023/01/07 02:40:42;;;;;;;10.20;4.10;;;;;;;-17.51;46.77;100916.81;4802617;29;20391;-81
2023/01/07 02:43:27;;;;;;;11.57;3.87;;;;;;;-17.47;47.08;100922.34;4789188;30;20043;-79
2023/01/07 02:46:10;;;;;;;9.77;3.77;;;;;;;-17.44;46.72;100910.28;4805736;29;20052;-80
2023/01/07 02:48:38;;;;;;;7.80;3.90;;;;;;;-17.66;46.38;100891.00;4774140;30;20192;-79
2023/01/07 02:51:04;;;;;;;7.73;3.50;;;;;;;-17.80;46.44;100862.88;4776720;30;20058;-81
2023/01/07 02:53:31;;;;;;;13.90;4.60;;;;;;;-17.59;46.60;100911.81;4792310;29;20078;-79
2023/01/07 02:56:23;;;;;;;10.50;5.00;;;;;;;-17.53;46.82;100931.56;4807311;29;20134;-79
2023/01/07 02:58:52;;;;;;;13.88;3.88;;;;;;;-17.63;46.67;100929.56;4773778;30;20050;-80
2023/01/07 03:01:42;;;;;;;10.00;3.90;;;;;;;-17.69;46.54;100931.31;4788324;29;20049;-80
2023/01/07 03:04:37;;;;;;;13.20;3.30;;;;;;;-17.74;46.65;100943.19;4781704;30;20074;-81
2023/01/07 03:07:22;;;;;;;5.37;2.80;;;;;;;-17.62;47.13;100945.38;4771717;30;20051;-80
2023/01/07 03:10:01;;;;;;;5.47;2.80;;;;;;;-17.67;47.16;100916.59;4788906;30;20055;-81
2023/01/07 03:12:40;;;;;;;9.73;3.10;;;;;;;-17.58;46.59;100940.06;4788084;29;20067;-81
2023/01/07 03:15:21;;;;;;;4.33;2.40;;;;;;;-17.55;46.78;100952.88;4805170;29;20104;-80
2023/01/07 03:18:01;;;;;;;6.05;2.90;;;;;;;-17.88;46.21;100921.63;4823661;29;20540;-78
2023/01/07 03:20:33;;;;;;;4.30;1.98;;;;;;;-17.78;46.84;100921.16;4806970;29;20610;-80
2023/01/07 03:23:04;;;;;;;5.43;2.63;;;;;;;-17.45;47.35;100962.34;4818457;29;20250;-81
2023/01/07 03:25:33;;;;;;;7.87;2.93;;;;;;;-17.66;46.69;100911.78;4814530;29;20312;-79
2023/01/07 03:27:59;;;;;;;8.50;2.83;;;;;;;-17.44;46.68;100941.72;4802156;29;20100;-80
2023/01/07 03:30:28;;;;;;;7.17;2.57;;;;;;;-17.40;47.24;100963.78;4816403;29;20091;-82
2023/01/07 03:33:03;;;;;;;3.77;1.93;;;;;;;-17.38;46.99;100954.00;4800601;30;20047;-80
2023/01/07 03:35:32;;;;;;;8.20;2.10;;;;;;;-17.31;47.14;100957.41;4791924;29;20043;-79
2023/01/07 03:38:01;;;;;;;4.03;2.13;;;;;;;-17.57;46.89;100930.31;4803396;29;20086;-80
2023/01/07 03:40:28;;;;;;;7.83;2.20;;;;;;;-17.51;47.53;100921.78;4791488;29;20043;-80
2023/01/07 03:42:54;;;;;;;6.60;2.40;;;;;;;-17.32;47.14;100944.78;4797673;29;20682;-80
2023/01/07 03:45:25;;;;;;;5.30;3.07;;;;;;;-17.55;46.45;100928.00;4797723;29;20579;-80
2023/01/07 03:47:55;;;;;;;5.47;2.45;;;;;;;-17.56;47.28;100921.25;4775816;29;20046;-81
2023/01/07 03:50:24;;;;;;;4.60;1.80;;;;;;;-17.47;47.46;100919.88;4802954;29;20131;-80
2023/01/07 03:52:51;;;;;;;5.83;2.47;;;;;;;-17.38;46.70;100935.00;4788896;29;20055;-80
2023/01/07 03:55:19;;;;;;;8.67;2.40;;;;;;;-17.38;46.74;100937.50;4788567;29;20074;-81
2023/01/07 03:57:47;;;;;;;7.93;2.40;;;;;;;-17.30;46.92;100943.38;4803991;29;20079;-79
2023/01/07 04:00:14;;;;;;;4.30;1.80;;;;;;;-17.44;47.22;100949.19;4788190;30;20075;-81
2023/01/07 04:02:41;;;;;;;7.17;2.53;;;;;;;-17.69;47.14;100923.84;4788950;29;20065;-79
2023/01/07 04:05:15;;;;;;;9.00;3.33;;;;;;;-17.30;47.59;100983.22;4786892;29;20532;-79
2023/01/07 04:07:42;;;;;;;7.17;2.80;;;;;;;-17.33;46.90;100981.25;4788928;29;20043;-79
2023/01/07 04:10:08;;;;;;;11.23;3.60;;;;;;;-17.52;47.55;100944.88;4801790;29;20043;-79
2023/01/07 04:12:36;;;;;;;5.77;2.50;;;;;;;-17.50;47.11;100955.91;4786687;29;20565;-79
2023/01/07 04:15:04;;;;;;;8.97;2.37;;;;;;;-17.49;47.01;100962.69;4797743;29;20133;-80
2023/01/07 04:17:30;;;;;;;5.27;2.70;;;;;;;-17.45;47.65;100979.75;4789639;29;20045;-80
2023/01/07 04:19:57;;;;;;;4.83;2.23;;;;;;;-17.92;47.23;100938.50;4789961;29;20134;-81
2023/01/07 04:22:24;;;;;;;6.37;2.50;;;;;;;-18.06;47.83;100912.84;4789696;29;20050;-81
2023/01/07 04:24:50;;;;;;;8.33;2.83;;;;;;;-17.77;47.04;100985.13;4775050;29;20342;-79
2023/01/07 04:27:17;;;;;;;5.87;2.07;;;;;;;-17.77;47.02;100991.69;4804475;29;20575;-81
2023/01/07 04:29:43;;;;;;;8.20;2.17;;;;;;;-17.80;47.59;100987.22;4805204;29;20099;-78
2023/01/07 04:32:10;;;;;;;5.93;2.77;;;;;;;-18.14;47.40;100953.31;4804836;29;20079;-79
2023/01/07 04:34:36;;;;;;;5.57;2.70;;;;;;;-17.88;48.34;100995.38;4804972;29;20051;-81
2023/01/07 04:37:03;;;;;;;9.47;2.47;;;;;;;-18.10;47.47;100981.91;4804052;29;20125;-80
2023/01/07 04:39:29;;;;;;;6.23;1.93;;;;;;;-18.29;47.16;100969.69;4804204;29;20047;-80
2023/01/07 04:41:56;;;;;;;5.30;2.07;;;;;;;-18.18;47.47;101018.25;4789212;29;20069;-80
2023/01/07 04:44:22;;;;;;;4.70;1.67;;;;;;;-18.24;47.71;101003.47;4756710;30;20059;-79
2023/01/07 04:46:48;;;;;;;3.47;1.83;;;;;;;-18.51;47.59;100979.47;4802619;29;20074;-81
2023/01/07 04:49:16;;;;;;;4.63;2.10;;;;;;;-18.45;47.94;100993.34;4785992;29;20051;-80
2023/01/07 04:51:42;;;;;;;10.67;2.63;;;;;;;-18.45;47.86;101004.19;4786031;30;20051;-80
2023/01/07 04:54:08;;;;;;;3.00;1.73;;;;;;;-18.56;47.47;101000.34;4787235;29;20047;-79
2023/01/07 04:56:34;;;;;;;6.47;2.53;;;;;;;-18.55;48.14;101009.59;4807305;29;20111;-81
2023/01/07 04:59:01;;;;;;;8.47;3.67;;;;;;;-18.56;47.85;101012.78;4782441;30;20058;-80
2023/01/07 05:01:29;;;;;;;8.73;2.70;;;;;;;-18.63;47.93;101000.28;4786397;30;20581;-80
2023/01/07 05:03:56;;;;;;;12.13;3.97;;;;;;;-18.59;48.04;101011.50;4785754;29;20047;-81
2023/01/07 05:06:24;;;;;;;7.83;2.80;;;;;;;-18.53;48.16;101035.53;4772145;30;20039;-79
2023/01/07 05:08:51;;;;;;;6.77;2.13;;;;;;;-18.63;48.04;101020.16;4801096;29;20055;-81
2023/01/07 05:11:20;;;;;;;7.97;2.67;;;;;;;-18.58;47.32;101035.66;4786744;29;20055;-80
2023/01/07 05:13:48;;;;;;;18.58;4.25;;;;;;;-18.56;48.62;101042.59;4803292;29;20051;-81
2023/01/07 05:16:16;;;;;;;9.33;3.27;;;;;;;-18.92;47.81;100996.63;4806198;29;20114;-79
2023/01/07 05:18:43;;;;;;;15.27;4.27;;;;;;;-18.83;47.54;101025.09;4789312;29;20070;-79
2023/01/07 05:21:09;;;;;;;11.47;3.37;;;;;;;-19.23;47.43;100973.81;4805366;29;20065;-80
2023/01/07 05:23:37;;;;;;;14.20;5.47;;;;;;;-18.82;48.24;101034.34;4803984;29;20067;-80
2023/01/07 05:26:04;;;;;;;18.00;6.37;;;;;;;-18.90;47.54;101020.03;4788905;29;20473;-79
2023/01/07 05:28:30;;;;;;;16.90;5.60;;;;;;;-18.71;47.51;101048.09;4774082;29;20111;-81
2023/01/07 05:30:57;;;;;;;12.17;5.10;;;;;;;-18.77;48.09;101045.75;4804397;29;20081;-80
2023/01/07 05:33:23;;;;;;;12.27;4.43;;;;;;;-19.04;48.00;101003.44;4804086;29;20046;-79
2023/01/07 05:35:49;;;;;;;10.30;4.10;;;;;;;-18.97;47.81;101034.19;4803907;29;20529;-81
2023/01/07 05:38:16;;;;;;;4.40;1.17;;;;;;;-18.91;48.06;101029.09;4804120;29;20062;-82
2023/01/07 05:40:47;;;;;;;4.60;2.00;;;;;;;-18.70;47.39;101058.22;4789529;29;20127;-82
2023/01/07 05:43:14;;;;;;;4.43;1.87;;;;;;;-18.61;47.80;101075.88;4807085;29;20057;-80
2023/01/07 05:45:45;;;;;;;6.80;1.87;;;;;;;-18.60;47.63;101084.25;4791307;29;20045;-81
2023/01/07 05:48:12;;;;;;;8.38;3.05;;;;;;;-18.74;47.77;101060.13;4804099;29;20196;-80
2023/01/07 05:50:38;;;;;;;3.87;2.07;;;;;;;-18.65;47.62;101093.59;4813281;29;20063;-81
2023/01/07 05:53:04;;;;;;;7.30;2.67;;;;;;;-18.78;48.23;101056.38;4785637;29;20047;-80
2023/01/07 05:55:30;;;;;;;4.57;2.60;;;;;;;-18.78;47.78;101056.38;4760110;29;20054;-81
2023/01/07 05:57:56;;;;;;;5.57;1.87;;;;;;;-18.70;48.13;101072.25;4804371;29;20105;-81
2023/01/07 06:00:23;;;;;;;5.67;2.77;;;;;;;-18.67;47.23;101104.94;4817999;29;20118;-80
2023/01/07 06:02:49;;;;;;;5.83;1.73;;;;;;;-18.83;47.78;101090.53;4822929;29;20058;-79
2023/01/07 06:05:15;;;;;;;5.10;1.90;;;;;;;-18.71;47.45;101097.78;4812654;29;20043;-80
2023/01/07 06:07:41;;;;;;;5.00;2.03;;;;;;;-18.51;47.64;101091.25;4808006;29;20133;-79
2023/01/07 06:10:07;;;;;;;5.73;2.20;;;;;;;-18.26;47.45;101061.13;4804631;29;20062;-79
2023/01/07 06:12:33;;;;;;;4.80;2.17;;;;;;;-19.33;47.73;100805.50;4795543;29;20059;-80
2023/01/07 06:14:59;;;;;;;8.70;2.50;;;;;;;-16.69;46.88;101126.63;4795686;29;20096;-81
2023/01/07 06:17:25;;;;;;;7.13;1.80;;;;;;;-16.09;48.12;101122.88;4803868;29;20047;-81
2023/01/07 06:19:52;;;;;;;5.33;1.47;;;;;;;-16.04;46.82;101010.28;4818654;29;20123;-78
2023/01/07 06:22:18;;;;;;;4.17;1.53;;;;;;;-15.49;46.47;100991.59;4803162;29;20039;-78
2023/01/07 06:24:44;;;;;;;6.97;1.30;;;;;;;-14.19;46.62;101099.13;4818135;29;20047;-80
2023/01/07 06:27:10;;;;;;;8.00;1.57;;;;;;;-13.66;46.10;101096.59;4773204;29;20055;-80
2023/01/07 06:29:36;;;;;;;7.23;1.83;;;;;;;-13.05;45.70;101085.44;4801739;29;20460;-81
2023/01/07 06:32:02;;;;;;;4.07;1.90;;;;;;;-12.16;44.88;101136.44;4787091;29;20047;-81
2023/01/07 06:34:28;;;;;;;6.23;1.80;;;;;;;-11.75;45.13;101088.63;4784892;30;20080;-81
2023/01/07 06:36:54;;;;;;;8.43;1.63;;;;;;;-10.93;44.57;101119.34;4785389;29;20046;-79
2023/01/07 06:39:20;;;;;;;8.17;2.17;;;;;;;-10.49;44.65;101068.13;4785136;29;20039;-81
2023/01/07 06:41:46;;;;;;;4.03;1.60;;;;;;;-9.70;43.50;101124.22;4785242;30;20051;-82
2023/01/07 06:44:12;;;;;;;4.90;2.23;;;;;;;-9.08;44.13;101113.84;4786640;30;20055;-81
2023/01/07 06:46:38;;;;;;;5.13;2.00;;;;;;;-8.38;43.12;101138.50;4791011;29;20086;-78
2023/01/07 06:49:04;;;;;;;6.20;2.10;;;;;;;-7.71;41.49;101146.81;4806864;29;20490;-82
2023/01/07 06:51:30;;;;;;;3.65;2.17;;;;;;;-7.50;42.07;101117.38;4785615;30;20044;-82
2023/01/07 06:53:56;;;;;;;8.50;3.75;;;;;;;-6.90;42.20;101098.75;4800022;29;20166;-81
2023/01/07 06:56:22;;;;;;;5.18;2.42;;;;;;;-6.34;41.63;101130.19;4781122;29;20121;-80
2023/01/07 06:58:48;;;;;;;6.35;2.45;;;;;;;-6.11;40.33;101101.59;4803265;29;20053;-79
2023/01/07 07:01:14;;;;;;;6.00;2.70;;;;;;;-5.28;41.35;101135.03;4803190;29;20050;-80
2023/01/07 07:03:40;;;;;;;6.07;2.55;;;;;;;-5.20;40.35;101094.97;4790215;29;20394;-81
2023/01/07 07:06:07;;;;;;;6.10;3.00;;;;;;;-4.82;39.28;101091.88;4808002;29;20037;-80
2023/01/07 07:08:34;;;;;;;6.38;2.67;;;;;;;-3.74;39.61;101158.84;4815515;29;20601;-80
2023/01/07 07:11:00;;;;;;;6.20;3.03;;;;;;;-3.44;38.76;101104.16;4810919;29;20137;-79
2023/01/07 07:13:26;;;;;;;7.40;3.05;;;;;;;-3.16;37.91;101145.88;4799760;30;20544;-82
2023/01/07 07:15:52;;;;;;;6.45;3.00;;;;;;;-2.24;39.20;101140.88;4817906;29;20042;-81
2023/01/07 07:18:18;;;;;;;7.68;3.00;;;;;;;-1.45;37.11;101119.38;4808041;29;20046;-79
2023/01/07 07:21:39;;;;;;;7.25;2.85;;;;;;;-0.81;36.90;101124.88;4810533;29;20095;-78
2023/01/07 07:24:32;;;;;;;7.35;3.10;;;;;;;0.11;35.69;101138.56;4803400;29;20069;-81
2023/01/07 07:27:24;;;;;;;8.10;3.40;;;;;;;0.58;34.44;101105.19;4794690;29;20491;-80
2023/01/07 07:29:50;;;;;;;7.60;3.42;;;;;;;0.80;34.88;101111.44;4808511;29;20054;-80
2023/01/07 07:32:17;;;;;;;7.38;3.30;;;;;;;1.54;35.28;101137.34;4807429;29;20153;-79
2023/01/07 07:34:44;;;;;;;5.82;3.10;;;;;;;2.46;35.00;101138.25;4795510;29;20047;-80
2023/01/07 07:37:10;;;;;;;6.32;3.78;;;;;;;3.23;33.24;101133.03;4809580;29;20046;-80
2023/01/07 07:39:36;;;;;;;5.97;3.78;;;;;;;3.30;33.33;101122.19;4807907;29;20043;-81
2023/01/07 07:42:04;;;;;;;11.70;4.55;;;;;;;3.97;33.14;101147.19;4791448;29;20064;-81
2023/01/07 07:44:30;;;;;;;13.00;5.25;;;;;;;4.20;32.60;101136.06;4790341;29;20054;-81
2023/01/07 07:46:56;;;;;;;12.73;5.50;;;;;;;4.77;31.79;101136.44;4791219;29;20058;-82
2023/01/07 07:54:15;;;;;;;8.50;4.28;;;;;;;5.42;30.82;101149.00;4720549;30;20084;-80
2023/01/07 07:56:43;;;;;;;10.15;4.53;;;;;;;4.71;30.35;101057.16;4776483;30;20484;-80
2023/01/07 07:59:09;;;;;;;11.65;5.47;;;;;;;4.23;30.38;100970.38;4787931;29;20142;-81
2023/01/07 08:01:37;;;;;;;7.63;4.28;;;;;;;5.46;29.77;101080.28;4788915;29;20054;-79
2023/01/07 08:04:03;;;;;;;8.13;4.13;;;;;;;6.09;28.59;101102.06;4787641;29;20134;-81
2023/01/07 08:06:33;;;;;;;8.13;4.07;;;;;;;6.45;27.97;101112.63;4803637;29;20075;-78
2023/01/07 08:09:02;;;;;;;8.25;4.13;;;;;;;7.08;27.36;101173.00;4787464;30;20047;-81
2023/01/07 08:11:31;;;;;;;6.85;3.63;;;;;;;7.48;27.42;101193.94;4787664;29;20163;-80
2023/01/07 08:14:17;;;;;;;6.95;4.20;;;;;;;7.36;26.56;101058.97;4794803;29;20054;-80
2023/01/07 08:16:45;;;;;;;8.20;4.25;;;;;;;7.14;25.48;101014.41;4804687;29;20133;-80
2023/01/07 08:19:20;;;;;;;6.25;4.00;;;;;;;8.07;25.73;101098.59;4804990;29;20043;-80
2023/01/07 08:22:04;;;;;;;6.50;4.13;;;;;;;8.82;24.63;101156.41;4805331;29;20145;-81
2023/01/07 08:25:34;;;;;;;6.68;3.78;;;;;;;9.53;24.33;101176.72;4781807;29;20540;-82
2023/01/07 08:28:23;;;;;;;7.00;4.65;;;;;;;8.51;23.02;100992.31;4805471;29;20100;-83
2023/01/07 08:31:02;;;;;;;7.45;4.22;;;;;;;9.53;22.96;101120.44;4806250;29;20050;-81
2023/01/07 08:33:53;;;;;;;6.93;4.45;;;;;;;9.74;21.61;101186.63;4809664;29;20210;-82
2023/01/07 08:36:27;;;;;;;6.97;4.78;;;;;;;8.82;22.10;101020.53;4814358;29;20066;-80
2023/01/07 08:38:56;;;;;;;12.23;8.88;;;;;;;10.14;22.25;101166.44;4802668;29;20600;-78
2023/01/07 08:41:27;;;;;;;9.32;5.00;;;;;;;9.37;21.43;100965.16;4811060;29;20241;-80
2023/01/07 08:43:54;;;;;;;8.82;6.20;;;;;;;10.46;21.32;101114.00;4810260;29;20074;-81
2023/01/07 08:46:24;;;;;;;14.27;11.77;;;;;;;10.94;20.68;101129.28;4807480;29;20043;-80
2023/01/07 08:48:50;;;;;;;12.80;9.43;;;;;;;11.37;20.25;101136.69;4810963;29;20051;-79
2023/01/07 08:51:35;;;;;;;11.13;6.90;;;;;;;11.30;19.46;101128.78;4798394;29;20046;-80
2023/01/07 08:54:02;;;;;;;7.82;4.82;;;;;;;11.58;19.14;101139.47;4775394;30;20055;-80
2023/01/07 08:56:36;;;;;;;7.78;4.55;;;;;;;11.94;19.08;101164.94;4809627;29;20055;-79
2023/01/07 08:59:14;;;;;;;10.52;6.63;;;;;;;11.99;19.07;101177.22;4792085;29;20051;-81
2023/01/07 09:01:43;;;;;;;12.63;7.45;;;;;;;12.12;18.96;101138.13;4771726;29;20043;-81
2023/01/07 09:04:22;;;;;;;17.85;8.15;;;;;;;11.74;18.32;101030.06;4787048;29;20051;-80
2023/01/07 09:07:26;;;;;;;13.52;7.32;;;;;;;11.29;18.54;101008.94;4788118;29;20066;-79
2023/01/07 09:10:12;;;;;;;11.77;6.75;;;;;;;11.68;18.29;101059.59;4800611;29;20135;-80
2023/01/07 09:12:38;;;;;;;13.43;6.70;;;;;;;12.27;17.94;101173.91;4786839;29;20059;-78
2023/01/07 09:15:05;;;;;;;12.05;7.72;;;;;;;11.71;17.95;101080.47;4813814;29;20049;-79
2023/01/07 09:17:35;;;;;;;11.35;6.38;;;;;;;11.62;17.49;101105.59;4790076;29;20050;-78
2023/01/07 09:20:05;;;;;;;30.23;17.63;;;;;;;11.11;17.55;101104.31;4806138;29;20055;-81
2023/01/07 09:22:37;;;;;;;7.25;4.95;;;;;;;10.18;17.82;101000.88;4804769;29;20043;-82
2023/01/07 09:25:08;;;;;;;9.45;5.68;;;;;;;10.20;17.86;100993.97;4803669;29;20050;-82
2023/01/07 09:27:47;;;;;;;7.00;4.88;;;;;;;10.31;17.40;101007.97;4801641;29;20046;-82
2023/01/07 09:30:17;;;;;;;11.80;6.00;;;;;;;9.57;17.49;101156.03;4789194;29;20110;-82
2023/01/07 09:32:44;;;;;;;14.05;6.20;;;;;;;9.14;17.68;101170.84;4788341;29;20054;-80
2023/01/07 09:35:17;;;;;;;7.85;4.45;;;;;;;8.98;17.69;101053.69;4803264;29;20052;-81
2023/01/07 09:37:43;;;;;;;7.70;4.60;;;;;;;8.68;17.13;101078.25;4802462;29;20055;-79
2023/01/07 09:40:43;;;;;;;6.93;4.50;;;;;;;7.78;17.69;100983.06;4786733;30;20054;-82
2023/01/07 09:43:37;;;;;;;7.57;4.55;;;;;;;10.00;17.86;101188.78;4785932;30;20039;-80
2023/01/07 09:46:18;;;;;;;7.78;4.25;;;;;;;9.74;17.53;101125.09;4800952;29;20466;-80
2023/01/07 09:49:17;;;;;;;8.38;4.78;;;;;;;9.68;16.99;101127.63;4773693;30;20046;-80
2023/01/07 09:51:58;;;;;;;10.85;6.47;;;;;;;9.38;17.59;101195.53;4789321;29;20095;-81
2023/01/07 09:54:35;;;;;;;8.25;4.55;;;;;;;10.03;18.06;101188.81;4794820;29;20143;-80
2023/01/07 09:57:02;;;;;;;11.00;5.25;;;;;;;10.56;17.54;101193.09;4785866;29;20074;-81
2023/01/07 09:59:29;;;;;;;9.35;5.25;;;;;;;10.57;17.19;101161.00;4796838;29;20051;-81
2023/01/07 10:02:13;;;;;;;8.48;4.80;;;;;;;10.59;16.75;101177.50;4796654;29;20081;-80
2023/01/07 10:05:28;;;;;;;9.10;4.80;;;;;;;10.14;16.66;101119.63;4774167;30;20043;-80
2023/01/07 10:08:03;;;;;;;9.05;5.00;;;;;;;10.64;16.82;101185.38;4789055;29;20459;-80
2023/01/07 10:11:04;;;;;;;11.30;8.73;;;;;;;10.51;16.33;101185.19;4791815;29;20058;-80
2023/01/07 10:13:30;;;;;;;9.00;4.57;;;;;;;10.01;15.84;101198.31;4819903;29;20092;-82
2023/01/07 10:16:38;;;;;;;8.98;4.78;;;;;;;7.87;16.56;101196.59;4772721;29;20055;-82
2023/01/07 10:19:11;;;;;;;10.32;6.30;;;;;;;5.13;16.69;101213.38;4791532;29;20043;-81
2023/01/07 10:21:42;;;;;;;11.18;5.70;;;;;;;2.94;17.20;101204.69;4790475;29;20051;-80
2023/01/07 10:24:26;;;;;;;10.40;5.10;;;;;;;1.28;18.19;101196.81;4789601;30;20226;-82
2023/01/07 10:26:57;;;;;;;11.43;5.10;;;;;;;0.05;18.34;101214.16;4792131;29;20039;-81
2023/01/07 10:29:26;;;;;;;10.30;4.65;;;;;;;-1.39;18.94;101232.13;4757808;30;20233;-80
2023/01/07 10:31:57;;;;;;;8.95;4.38;;;;;;;-2.62;19.21;101219.16;4788464;29;20062;-81
2023/01/07 10:34:30;;;;;;;8.82;4.32;;;;;;;-3.65;19.62;101170.59;4792456;29;20071;-81
2023/01/07 10:37:06;;;;;;;8.98;4.28;;;;;;;-4.18;20.29;101251.53;4789254;29;20150;-81
2023/01/07 10:40:10;;;;;;;9.27;4.20;;;;;;;-5.29;20.24;101252.53;4792427;29;20043;-81
2023/01/07 10:43:10;;;;;;;10.55;5.18;;;;;;;-6.00;20.96;101250.38;4790252;29;20047;-80
2023/01/07 10:45:51;;;;;;;9.73;4.53;;;;;;;-6.39;21.57;101266.63;4791887;30;20126;-81
2023/01/07 10:48:39;;;;;;;10.48;4.40;;;;;;;-6.84;21.67;101273.91;4790529;29;20104;-82
2023/01/07 10:51:15;;;;;;;12.75;5.90;;;;;;;-7.14;21.73;101278.16;4790296;30;20051;-79
2023/01/07 10:54:11;;;;;;;11.65;4.50;;;;;;;-7.58;21.82;101285.31;4777796;30;20525;-82
2023/01/07 10:56:57;;;;;;;9.30;4.00;;;;;;;-9.20;22.22;101083.34;4805262;29;20051;-81
2023/01/07 10:59:39;;;;;;;8.68;3.78;;;;;;;-8.97;22.41;101155.19;4793020;29;20471;-82
2023/01/07 11:02:16;;;;;;;8.67;3.77;;;;;;;-8.81;22.82;101263.44;4793895;29;20062;-81
2023/01/07 11:04:57;;;;;;;9.90;4.00;;;;;;;-10.70;23.35;101009.94;4794147;30;20451;-81
2023/01/07 11:07:45;;;;;;;7.93;3.70;;;;;;;-9.27;23.49;101287.78;4799944;29;20051;-80
2023/01/07 11:10:24;;;;;;;9.95;3.53;;;;;;;-9.54;23.23;101295.41;4792016;29;20039;-82
2023/01/07 11:13:11;;;;;;;13.17;4.50;;;;;;;-10.05;23.32;101274.53;4790164;29;20063;-83
2023/01/07 11:15:52;;;;;;;7.93;3.60;;;;;;;-10.20;23.72;101286.50;4808811;29;20059;-80
2023/01/07 11:18:37;;;;;;;8.53;3.13;;;;;;;-10.46;23.53;101290.81;4814458;29;20481;-81
2023/01/07 11:22:02;;;;;;;8.37;3.60;;;;;;;-12.43;23.96;101029.97;4815817;29;20107;-81
2023/01/07 11:24:32;;;;;;;11.27;4.00;;;;;;;-11.93;24.61;101115.28;4805368;29;20071;-81
2023/01/07 11:27:22;;;;;;;9.33;3.37;;;;;;;-12.25;24.30;101105.41;4783953;29;20522;-81
2023/01/07 11:29:56;;;;;;;7.23;3.37;;;;;;;-11.62;25.27;101233.97;4813229;29;20043;-81
2023/01/07 11:32:30;;;;;;;9.10;4.10;;;;;;;-11.93;24.95;101225.75;4817476;29;20091;-80
2023/01/07 11:35:05;;;;;;;10.87;4.40;;;;;;;-11.91;25.35;101272.03;4814301;29;20290;-82
2023/01/07 11:37:37;;;;;;;11.30;3.37;;;;;;;-11.99;24.99;101286.31;4840876;29;20066;-82
2023/01/07 11:40:17;;;;;;;10.67;4.57;;;;;;;-12.13;25.48;101292.41;4823363;29;20046;-80
2023/01/07 11:42:59;;;;;;;9.97;4.30;;;;;;;-12.24;25.68;101300.41;4807379;29;20195;-81
2023/01/07 11:45:50;;;;;;;11.80;3.60;;;;;;;-12.41;26.01;101281.94;4805822;29;20104;-79
2023/01/07 11:48:51;;;;;;;6.28;3.45;;;;;;;-12.56;26.04;101312.94;4795967;29;20055;-81
2023/01/07 11:51:39;;;;;;;8.63;3.50;;;;;;;-12.85;26.41;101317.31;4796434;29;20071;-81
2023/01/07 11:54:37;;;;;;;13.13;3.57;;;;;;;-13.03;26.82;101319.59;4778858;30;20047;-82